sensor_id;sensor_type;location;lat;lon;timestamp;pressure;altitude;pressure_sealevel;temperature;humidity
64053;BME280;50299;49.524;8.536;2023-07-28T00:01:01;99734.97;;;15.79;88.40
64053;BME280;50299;49.524;8.536;2023-07-28T00:03:28;99730.53;;;15.74;83.09
64053;BME280;50299;49.524;8.536;2023-07-28T00:05:54;99734.88;;;15.68;87.33
64053;BME280;50299;49.524;8.536;2023-07-28T00:08:20;99727.78;;;15.78;88.07
64053;BME280;50299;49.524;8.536;2023-07-28T00:10:47;99732.66;;;15.85;88.10
64053;BME280;50299;49.524;8.536;2023-07-28T00:13:13;99731.28;;;15.68;85.54
64053;BME280;50299;49.524;8.536;2023-07-28T00:15:40;99728.91;;;15.70;87.26
64053;BME280;50299;49.524;8.536;2023-07-28T00:18:06;99732.63;;;15.81;87.79
64053;BME280;50299;49.524;8.536;2023-07-28T00:20:32;99738.63;;;15.87;86.36
64053;BME280;50299;49.524;8.536;2023-07-28T00:22:59;99732.78;;;15.95;87.86
64053;BME280;50299;49.524;8.536;2023-07-28T00:25:25;99729.94;;;15.92;85.79
64053;BME280;50299;49.524;8.536;2023-07-28T00:27:52;99732.31;;;15.90;85.99
64053;BME280;50299;49.524;8.536;2023-07-28T00:30:18;99731.97;;;15.95;86.62
64053;BME280;50299;49.524;8.536;2023-07-28T00:32:45;99724.84;;;15.97;85.31
64053;BME280;50299;49.524;8.536;2023-07-28T00:35:11;99731.84;;;15.84;82.42
64053;BME280;50299;49.524;8.536;2023-07-28T00:37:38;99722.53;;;15.69;83.39
64053;BME280;50299;49.524;8.536;2023-07-28T00:40:04;99720.91;;;15.65;84.49
64053;BME280;50299;49.524;8.536;2023-07-28T00:42:31;99713.28;;;15.62;85.52
64053;BME280;50299;49.524;8.536;2023-07-28T00:44:59;99709.72;;;15.61;86.57
64053;BME280;50299;49.524;8.536;2023-07-28T00:47:25;99710.81;;;15.53;85.25
64053;BME280;50299;49.524;8.536;2023-07-28T00:49:51;99707.16;;;15.45;83.13
64053;BME280;50299;49.524;8.536;2023-07-28T00:52:18;99707.34;;;15.29;82.14
64053;BME280;50299;49.524;8.536;2023-07-28T00:54:44;99705.00;;;15.32;82.69
64053;BME280;50299;49.524;8.536;2023-07-28T00:57:11;99706.34;;;15.45;86.83
64053;BME280;50299;49.524;8.536;2023-07-28T00:59:38;99701.63;;;15.49;84.74
64053;BME280;50299;49.524;8.536;2023-07-28T01:02:04;99701.69;;;15.56;84.96
64053;BME280;50299;49.524;8.536;2023-07-28T01:04:31;99708.56;;;15.66;85.20
64053;BME280;50299;49.524;8.536;2023-07-28T01:07:05;99700.50;;;15.57;81.99
64053;BME280;50299;49.524;8.536;2023-07-28T01:10:11;99698.47;;;15.54;84.02
64053;BME280;50299;49.524;8.536;2023-07-28T01:12:39;99704.94;;;15.62;84.05
64053;BME280;50299;49.524;8.536;2023-07-28T01:15:06;99714.44;;;15.57;83.46
64053;BME280;50299;49.524;8.536;2023-07-28T01:17:32;99708.19;;;15.34;93.54
64053;BME280;50299;49.524;8.536;2023-07-28T01:19:59;99711.25;;;14.95;97.74
64053;BME280;50299;49.524;8.536;2023-07-28T01:27:42;99695.66;;;14.60;99.01
64053;BME280;50299;49.524;8.536;2023-07-28T01:30:10;99702.56;;;14.43;97.28
64053;BME280;50299;49.524;8.536;2023-07-28T01:32:37;99708.03;;;14.63;100.00
64053;BME280;50299;49.524;8.536;2023-07-28T01:35:03;99701.75;;;14.43;100.00
64053;BME280;50299;49.524;8.536;2023-07-28T01:37:30;99702.78;;;14.58;100.00
64053;BME280;50299;49.524;8.536;2023-07-28T01:39:56;99703.63;;;14.62;100.00
64053;BME280;50299;49.524;8.536;2023-07-28T01:42:23;99704.19;;;14.44;100.00
64053;BME280;50299;49.524;8.536;2023-07-28T01:44:50;99714.06;;;14.68;100.00
64053;BME280;50299;49.524;8.536;2023-07-28T01:47:16;99710.75;;;14.59;100.00
64053;BME280;50299;49.524;8.536;2023-07-28T01:49:43;99701.00;;;14.23;100.00
64053;BME280;50299;49.524;8.536;2023-07-28T01:52:09;99709.81;;;14.48;100.00
64053;BME280;50299;49.524;8.536;2023-07-28T01:54:35;99713.19;;;14.38;100.00
64053;BME280;50299;49.524;8.536;2023-07-28T01:57:02;99711.72;;;14.44;100.00
64053;BME280;50299;49.524;8.536;2023-07-28T01:59:29;99712.31;;;14.57;100.00
64053;BME280;50299;49.524;8.536;2023-07-28T02:01:55;99727.28;;;14.48;100.00
64053;BME280;50299;49.524;8.536;2023-07-28T02:04:22;99721.25;;;14.69;100.00
64053;BME280;50299;49.524;8.536;2023-07-28T02:06:48;99717.44;;;14.54;100.00
64053;BME280;50299;49.524;8.536;2023-07-28T02:09:14;99714.88;;;14.19;100.00
64053;BME280;50299;49.524;8.536;2023-07-28T02:11:41;99710.47;;;14.18;100.00
64053;BME280;50299;49.524;8.536;2023-07-28T02:14:07;99716.09;;;14.45;100.00
64053;BME280;50299;49.524;8.536;2023-07-28T02:16:34;99719.19;;;14.40;100.00
64053;BME280;50299;49.524;8.536;2023-07-28T02:19:00;99703.41;;;14.47;100.00
64053;BME280;50299;49.524;8.536;2023-07-28T02:21:27;99706.84;;;14.64;100.00
64053;BME280;50299;49.524;8.536;2023-07-28T02:23:56;99709.25;;;14.65;100.00
64053;BME280;50299;49.524;8.536;2023-07-28T02:26:22;99718.75;;;14.64;100.00
64053;BME280;50299;49.524;8.536;2023-07-28T02:28:48;99712.31;;;14.11;100.00
64053;BME280;50299;49.524;8.536;2023-07-28T02:31:15;99713.81;;;14.04;100.00
64053;BME280;50299;49.524;8.536;2023-07-28T02:33:42;99710.66;;;13.83;100.00
64053;BME280;50299;49.524;8.536;2023-07-28T02:36:08;99707.00;;;14.02;100.00
64053;BME280;50299;49.524;8.536;2023-07-28T02:38:35;99709.91;;;14.09;100.00
64053;BME280;50299;49.524;8.536;2023-07-28T02:41:01;99699.47;;;14.25;100.00
64053;BME280;50299;49.524;8.536;2023-07-28T02:43:30;99698.56;;;14.41;100.00
64053;BME280;50299;49.524;8.536;2023-07-28T02:45:57;99696.63;;;14.45;100.00
64053;BME280;50299;49.524;8.536;2023-07-28T02:48:24;99706.94;;;14.21;100.00
64053;BME280;50299;49.524;8.536;2023-07-28T02:50:51;99693.09;;;14.02;100.00
64053;BME280;50299;49.524;8.536;2023-07-28T02:53:18;99701.81;;;13.77;100.00
64053;BME280;50299;49.524;8.536;2023-07-28T02:55:46;99699.03;;;13.77;100.00
64053;BME280;50299;49.524;8.536;2023-07-28T02:58:14;99700.28;;;13.80;100.00
64053;BME280;50299;49.524;8.536;2023-07-28T03:00:41;99705.59;;;13.89;100.00
64053;BME280;50299;49.524;8.536;2023-07-28T03:03:09;99698.72;;;14.05;100.00
64053;BME280;50299;49.524;8.536;2023-07-28T03:05:39;99705.59;;;14.35;100.00
64053;BME280;50299;49.524;8.536;2023-07-28T03:08:06;99708.88;;;14.40;100.00
64053;BME280;50299;49.524;8.536;2023-07-28T03:10:33;99712.81;;;14.39;100.00
64053;BME280;50299;49.524;8.536;2023-07-28T03:12:59;99711.88;;;14.31;100.00
64053;BME280;50299;49.524;8.536;2023-07-28T03:15:25;99712.47;;;14.41;100.00
64053;BME280;50299;49.524;8.536;2023-07-28T03:17:52;99709.19;;;14.35;100.00
64053;BME280;50299;49.524;8.536;2023-07-28T03:20:20;99712.94;;;14.46;100.00
64053;BME280;50299;49.524;8.536;2023-07-28T03:22:47;99712.78;;;14.62;100.00
64053;BME280;50299;49.524;8.536;2023-07-28T03:25:14;99704.91;;;14.68;100.00
64053;BME280;50299;49.524;8.536;2023-07-28T03:27:40;99708.13;;;14.70;100.00
64053;BME280;50299;49.524;8.536;2023-07-28T03:30:07;99704.97;;;14.71;100.00
64053;BME280;50299;49.524;8.536;2023-07-28T03:32:37;99701.53;;;14.82;100.00
64053;BME280;50299;49.524;8.536;2023-07-28T03:35:04;99700.69;;;14.77;100.00
64053;BME280;50299;49.524;8.536;2023-07-28T03:37:32;99699.06;;;14.76;100.00
64053;BME280;50299;49.524;8.536;2023-07-28T03:39:59;99693.94;;;14.78;100.00
64053;BME280;50299;49.524;8.536;2023-07-28T03:42:25;99705.19;;;14.86;100.00
64053;BME280;50299;49.524;8.536;2023-07-28T03:44:51;99700.63;;;14.74;100.00
64053;BME280;50299;49.524;8.536;2023-07-28T03:47:19;99709.66;;;14.67;100.00
64053;BME280;50299;49.524;8.536;2023-07-28T03:49:45;99710.22;;;14.50;100.00
64053;BME280;50299;49.524;8.536;2023-07-28T03:52:12;99709.41;;;14.49;100.00
64053;BME280;50299;49.524;8.536;2023-07-28T03:54:38;99719.72;;;14.75;100.00
64053;BME280;50299;49.524;8.536;2023-07-28T03:57:05;99713.69;;;14.70;100.00
64053;BME280;50299;49.524;8.536;2023-07-28T03:59:31;99718.97;;;14.78;100.00
64053;BME280;50299;49.524;8.536;2023-07-28T04:01:58;99722.66;;;14.86;100.00
64053;BME280;50299;49.524;8.536;2023-07-28T04:04:24;99726.78;;;14.96;100.00
64053;BME280;50299;49.524;8.536;2023-07-28T04:06:51;99728.88;;;15.02;100.00
64053;BME280;50299;49.524;8.536;2023-07-28T04:09:19;99725.59;;;14.97;100.00
64053;BME280;50299;49.524;8.536;2023-07-28T04:11:46;99718.72;;;14.87;100.00
64053;BME280;50299;49.524;8.536;2023-07-28T04:14:13;99712.56;;;14.74;100.00
64053;BME280;50299;49.524;8.536;2023-07-28T04:16:40;99722.72;;;14.90;100.00
64053;BME280;50299;49.524;8.536;2023-07-28T04:19:06;99722.72;;;14.90;100.00
64053;BME280;50299;49.524;8.536;2023-07-28T04:21:33;99722.66;;;14.86;100.00
64053;BME280;50299;49.524;8.536;2023-07-28T04:23:59;99723.09;;;14.88;100.00
64053;BME280;50299;49.524;8.536;2023-07-28T04:26:26;99727.50;;;14.89;100.00
64053;BME280;50299;49.524;8.536;2023-07-28T04:28:52;99730.16;;;14.82;100.00
64053;BME280;50299;49.524;8.536;2023-07-28T04:31:19;99729.44;;;14.85;100.00
64053;BME280;50299;49.524;8.536;2023-07-28T04:33:45;99727.56;;;14.96;100.00
64053;BME280;50299;49.524;8.536;2023-07-28T04:36:11;99736.72;;;14.97;100.00
64053;BME280;50299;49.524;8.536;2023-07-28T04:38:38;99732.63;;;14.87;100.00
64053;BME280;50299;49.524;8.536;2023-07-28T04:41:04;99744.00;;;15.05;100.00
64053;BME280;50299;49.524;8.536;2023-07-28T04:43:31;99742.34;;;15.00;100.00
64053;BME280;50299;49.524;8.536;2023-07-28T04:45:57;99750.78;;;14.77;100.00
64053;BME280;50299;49.524;8.536;2023-07-28T04:48:24;99746.00;;;14.78;100.00
64053;BME280;50299;49.524;8.536;2023-07-28T04:50:50;99742.25;;;14.67;100.00
64053;BME280;50299;49.524;8.536;2023-07-28T04:53:17;99742.63;;;14.65;100.00
64053;BME280;50299;49.524;8.536;2023-07-28T04:55:43;99751.66;;;14.59;100.00
64053;BME280;50299;49.524;8.536;2023-07-28T04:58:09;99753.16;;;14.52;100.00
64053;BME280;50299;49.524;8.536;2023-07-28T05:00:36;99742.47;;;14.54;100.00
64053;BME280;50299;49.524;8.536;2023-07-28T05:03:02;99741.53;;;14.47;100.00
64053;BME280;50299;49.524;8.536;2023-07-28T05:05:29;99746.97;;;14.63;100.00
64053;BME280;50299;49.524;8.536;2023-07-28T05:07:56;99751.78;;;14.66;100.00
64053;BME280;50299;49.524;8.536;2023-07-28T05:10:22;99752.03;;;14.84;100.00
64053;BME280;50299;49.524;8.536;2023-07-28T05:12:48;99757.25;;;14.85;100.00
64053;BME280;50299;49.524;8.536;2023-07-28T05:15:15;99756.19;;;14.97;100.00
64053;BME280;50299;49.524;8.536;2023-07-28T05:17:41;99753.63;;;15.11;100.00
64053;BME280;50299;49.524;8.536;2023-07-28T05:20:08;99758.66;;;15.28;100.00
64053;BME280;50299;49.524;8.536;2023-07-28T05:22:35;99765.16;;;15.40;100.00
64053;BME280;50299;49.524;8.536;2023-07-28T05:25:01;99754.53;;;15.49;100.00
64053;BME280;50299;49.524;8.536;2023-07-28T05:27:28;99753.41;;;15.53;100.00
64053;BME280;50299;49.524;8.536;2023-07-28T05:29:54;99761.38;;;15.55;100.00
64053;BME280;50299;49.524;8.536;2023-07-28T05:32:20;99757.50;;;15.63;100.00
64053;BME280;50299;49.524;8.536;2023-07-28T05:34:47;99770.75;;;15.73;100.00
64053;BME280;50299;49.524;8.536;2023-07-28T05:37:14;99765.22;;;15.77;100.00
64053;BME280;50299;49.524;8.536;2023-07-28T05:39:41;99763.63;;;15.76;100.00
64053;BME280;50299;49.524;8.536;2023-07-28T05:42:07;99766.28;;;15.65;100.00
64053;BME280;50299;49.524;8.536;2023-07-28T05:44:34;99772.72;;;15.73;100.00
64053;BME280;50299;49.524;8.536;2023-07-28T05:47:00;99773.97;;;15.75;100.00
64053;BME280;50299;49.524;8.536;2023-07-28T05:49:27;99774.06;;;15.86;100.00
64053;BME280;50299;49.524;8.536;2023-07-28T05:51:53;99771.47;;;16.00;100.00
64053;BME280;50299;49.524;8.536;2023-07-28T05:54:20;99780.38;;;15.83;100.00
64053;BME280;50299;49.524;8.536;2023-07-28T05:56:46;99772.28;;;15.71;100.00
64053;BME280;50299;49.524;8.536;2023-07-28T05:59:12;99774.63;;;15.65;100.00
64053;BME280;50299;49.524;8.536;2023-07-28T06:01:39;99779.16;;;15.43;100.00
64053;BME280;50299;49.524;8.536;2023-07-28T06:04:05;99775.69;;;15.53;100.00
64053;BME280;50299;49.524;8.536;2023-07-28T06:06:32;99780.28;;;15.72;100.00
64053;BME280;50299;49.524;8.536;2023-07-28T06:08:58;99789.94;;;15.82;99.77
64053;BME280;50299;49.524;8.536;2023-07-28T06:11:25;99786.22;;;16.01;100.00
64053;BME280;50299;49.524;8.536;2023-07-28T06:13:52;99787.25;;;15.89;96.81
64053;BME280;50299;49.524;8.536;2023-07-28T06:16:18;99791.34;;;15.99;100.00
64053;BME280;50299;49.524;8.536;2023-07-28T06:18:45;99798.66;;;16.11;99.34
64053;BME280;50299;49.524;8.536;2023-07-28T06:21:11;99801.88;;;16.16;98.51
64053;BME280;50299;49.524;8.536;2023-07-28T06:23:38;99799.25;;;16.31;100.00
64053;BME280;50299;49.524;8.536;2023-07-28T06:26:04;99816.88;;;16.42;96.34
64053;BME280;50299;49.524;8.536;2023-07-28T06:28:30;99818.56;;;16.50;96.42
64053;BME280;50299;49.524;8.536;2023-07-28T06:30:57;99824.53;;;16.52;97.07
64053;BME280;50299;49.524;8.536;2023-07-28T06:33:25;99818.19;;;16.55;97.03
64053;BME280;50299;49.524;8.536;2023-07-28T06:35:51;99835.25;;;16.46;91.08
64053;BME280;50299;49.524;8.536;2023-07-28T06:38:18;99832.44;;;16.43;95.12
64053;BME280;50299;49.524;8.536;2023-07-28T06:40:45;99840.44;;;16.48;94.06
64053;BME280;50299;49.524;8.536;2023-07-28T06:43:11;99841.16;;;16.38;91.78
64053;BME280;50299;49.524;8.536;2023-07-28T06:45:38;99840.28;;;16.30;91.38
64053;BME280;50299;49.524;8.536;2023-07-28T06:48:05;99841.38;;;16.22;91.52
64053;BME280;50299;49.524;8.536;2023-07-28T06:50:31;99838.25;;;16.27;93.17
64053;BME280;50299;49.524;8.536;2023-07-28T06:52:58;99836.13;;;16.13;91.38
64053;BME280;50299;49.524;8.536;2023-07-28T06:55:25;99838.75;;;15.99;89.90
64053;BME280;50299;49.524;8.536;2023-07-28T06:57:51;99840.31;;;15.96;92.24
64053;BME280;50299;49.524;8.536;2023-07-28T07:00:17;99849.34;;;15.90;89.32
64053;BME280;50299;49.524;8.536;2023-07-28T07:02:44;99846.91;;;15.85;90.57
64053;BME280;50299;49.524;8.536;2023-07-28T07:05:12;99843.47;;;15.95;91.00
64053;BME280;50299;49.524;8.536;2023-07-28T07:07:39;99845.91;;;15.96;91.53
64053;BME280;50299;49.524;8.536;2023-07-28T07:10:06;99846.75;;;16.04;89.16
64053;BME280;50299;49.524;8.536;2023-07-28T07:12:33;99847.97;;;16.07;88.98
64053;BME280;50299;49.524;8.536;2023-07-28T07:14:59;99843.25;;;16.11;93.43
64053;BME280;50299;49.524;8.536;2023-07-28T07:17:26;99845.03;;;16.26;95.45
64053;BME280;50299;49.524;8.536;2023-07-28T07:19:52;99861.00;;;16.29;87.80
64053;BME280;50299;49.524;8.536;2023-07-28T07:22:19;99855.34;;;16.22;88.26
64053;BME280;50299;49.524;8.536;2023-07-28T07:24:45;99859.72;;;16.23;90.04
64053;BME280;50299;49.524;8.536;2023-07-28T07:27:11;99860.69;;;16.38;88.90
64053;BME280;50299;49.524;8.536;2023-07-28T07:29:39;99857.78;;;16.27;87.88
64053;BME280;50299;49.524;8.536;2023-07-28T07:32:06;99858.69;;;16.38;91.68
64053;BME280;50299;49.524;8.536;2023-07-28T07:34:34;99857.63;;;16.53;87.78
64053;BME280;50299;49.524;8.536;2023-07-28T07:37:00;99861.19;;;16.50;89.77
64053;BME280;50299;49.524;8.536;2023-07-28T07:39:27;99865.38;;;16.67;94.25
64053;BME280;50299;49.524;8.536;2023-07-28T07:41:54;99867.94;;;16.87;88.62
64053;BME280;50299;49.524;8.536;2023-07-28T07:44:20;99871.19;;;16.96;88.59
64053;BME280;50299;49.524;8.536;2023-07-28T07:46:47;99882.00;;;17.01;86.83
64053;BME280;50299;49.524;8.536;2023-07-28T07:49:13;99876.84;;;17.07;86.29
64053;BME280;50299;49.524;8.536;2023-07-28T07:51:40;99881.44;;;17.33;86.50
64053;BME280;50299;49.524;8.536;2023-07-28T07:54:07;99878.88;;;17.72;89.22
64053;BME280;50299;49.524;8.536;2023-07-28T07:56:33;99882.03;;;17.63;84.96
64053;BME280;50299;49.524;8.536;2023-07-28T07:58:59;99880.84;;;17.64;85.89
64053;BME280;50299;49.524;8.536;2023-07-28T08:01:26;99890.44;;;17.67;86.66
64053;BME280;50299;49.524;8.536;2023-07-28T08:03:52;99881.28;;;17.70;83.94
64053;BME280;50299;49.524;8.536;2023-07-28T08:06:19;99880.94;;;17.89;86.11
64053;BME280;50299;49.524;8.536;2023-07-28T08:08:45;99894.66;;;18.12;84.38
64053;BME280;50299;49.524;8.536;2023-07-28T08:11:12;99891.31;;;17.89;82.14
64053;BME280;50299;49.524;8.536;2023-07-28T08:13:38;99888.56;;;17.92;89.41
64053;BME280;50299;49.524;8.536;2023-07-28T08:16:05;99890.28;;;18.25;81.79
64053;BME280;50299;49.524;8.536;2023-07-28T08:18:31;99890.78;;;18.60;81.76
64053;BME280;50299;49.524;8.536;2023-07-28T08:20:58;99888.38;;;18.62;75.07
64053;BME280;50299;49.524;8.536;2023-07-28T08:23:25;99884.41;;;18.88;81.04
64053;BME280;50299;49.524;8.536;2023-07-28T08:25:51;99886.44;;;19.05;77.60
64053;BME280;50299;49.524;8.536;2023-07-28T08:28:19;99886.41;;;19.34;79.50
64053;BME280;50299;49.524;8.536;2023-07-28T08:30:54;99889.53;;;19.71;77.67
64053;BME280;50299;49.524;8.536;2023-07-28T08:33:21;99890.28;;;19.86;77.41
64053;BME280;50299;49.524;8.536;2023-07-28T08:35:48;99893.59;;;19.42;70.80
64053;BME280;50299;49.524;8.536;2023-07-28T08:38:14;99895.16;;;19.75;74.89
64053;BME280;50299;49.524;8.536;2023-07-28T08:40:43;99890.16;;;20.18;73.38
64053;BME280;50299;49.524;8.536;2023-07-28T08:43:10;99899.78;;;20.25;70.62
64053;BME280;50299;49.524;8.536;2023-07-28T08:45:37;99894.56;;;20.19;74.45
64053;BME280;50299;49.524;8.536;2023-07-28T08:48:04;99898.59;;;20.18;73.61
64053;BME280;50299;49.524;8.536;2023-07-28T08:50:31;99903.59;;;20.52;66.90
64053;BME280;50299;49.524;8.536;2023-07-28T08:52:57;99901.16;;;20.61;73.28
64053;BME280;50299;49.524;8.536;2023-07-28T08:55:25;99912.72;;;20.74;65.71
64053;BME280;50299;49.524;8.536;2023-07-28T08:57:52;99907.19;;;20.56;64.25
64053;BME280;50299;49.524;8.536;2023-07-28T09:00:19;99908.06;;;20.46;65.97
64053;BME280;50299;49.524;8.536;2023-07-28T09:02:48;99905.72;;;20.37;70.03
64053;BME280;50299;49.524;8.536;2023-07-28T09:05:21;99902.31;;;20.67;67.12
64053;BME280;50299;49.524;8.536;2023-07-28T09:07:50;99897.94;;;20.59;67.67
64053;BME280;50299;49.524;8.536;2023-07-28T09:10:18;99898.84;;;20.45;68.15
64053;BME280;50299;49.524;8.536;2023-07-28T09:12:51;99892.31;;;19.79;68.16
64053;BME280;50299;49.524;8.536;2023-07-28T09:15:17;99888.78;;;19.57;65.31
64053;BME280;50299;49.524;8.536;2023-07-28T09:17:45;99898.44;;;19.09;65.64
64053;BME280;50299;49.524;8.536;2023-07-28T09:20:16;99900.69;;;18.29;68.64
64053;BME280;50299;49.524;8.536;2023-07-28T09:22:43;99902.31;;;18.37;70.38
64053;BME280;50299;49.524;8.536;2023-07-28T09:25:16;99901.16;;;18.63;68.67
64053;BME280;50299;49.524;8.536;2023-07-28T09:27:50;99902.38;;;18.62;70.53
64053;BME280;50299;49.524;8.536;2023-07-28T09:30:17;99905.94;;;18.55;68.55
64053;BME280;50299;49.524;8.536;2023-07-28T09:32:48;99893.59;;;19.56;70.23
64053;BME280;50299;49.524;8.536;2023-07-28T09:35:16;99903.06;;;19.98;68.03
64053;BME280;50299;49.524;8.536;2023-07-28T09:37:44;99901.84;;;20.10;66.67
64053;BME280;50299;49.524;8.536;2023-07-28T09:40:13;99903.56;;;19.64;63.43
64053;BME280;50299;49.524;8.536;2023-07-28T09:42:41;99903.16;;;19.66;65.48
64053;BME280;50299;49.524;8.536;2023-07-28T09:45:08;99906.81;;;19.56;65.19
64053;BME280;50299;49.524;8.536;2023-07-28T09:47:55;99902.03;;;18.78;66.32
64053;BME280;50299;49.524;8.536;2023-07-28T09:50:23;99901.56;;;18.61;68.94
64053;BME280;50299;49.524;8.536;2023-07-28T09:52:53;99897.56;;;18.48;70.14
64053;BME280;50299;49.524;8.536;2023-07-28T09:55:20;99896.78;;;18.62;66.07
64053;BME280;50299;49.524;8.536;2023-07-28T09:57:51;99907.19;;;18.65;66.20
64053;BME280;50299;49.524;8.536;2023-07-28T10:00:18;99891.22;;;18.94;65.73
64053;BME280;50299;49.524;8.536;2023-07-28T10:02:46;99886.00;;;19.35;65.74
64053;BME280;50299;49.524;8.536;2023-07-28T10:05:14;99901.38;;;20.26;66.44
64053;BME280;50299;49.524;8.536;2023-07-28T10:07:44;99904.19;;;20.88;61.77
64053;BME280;50299;49.524;8.536;2023-07-28T10:10:14;99895.44;;;20.72;57.65
64053;BME280;50299;49.524;8.536;2023-07-28T10:12:52;99907.59;;;20.55;57.58
64053;BME280;50299;49.524;8.536;2023-07-28T10:15:20;99908.91;;;20.39;57.25
64053;BME280;50299;49.524;8.536;2023-07-28T10:17:53;99906.22;;;20.11;61.40
64053;BME280;50299;49.524;8.536;2023-07-28T10:23:14;99912.84;;;19.15;62.59
64053;BME280;50299;49.524;8.536;2023-07-28T10:25:42;99906.03;;;19.44;60.18
64053;BME280;50299;49.524;8.536;2023-07-28T10:28:27;99910.81;;;19.55;61.24
64053;BME280;50299;49.524;8.536;2023-07-28T10:30:59;99914.41;;;19.55;60.63
64053;BME280;50299;49.524;8.536;2023-07-28T10:33:28;99914.44;;;19.44;59.49
64053;BME280;50299;49.524;8.536;2023-07-28T10:35:55;99934.44;;;19.54;57.48
64053;BME280;50299;49.524;8.536;2023-07-28T10:38:32;99922.44;;;19.39;58.67
64053;BME280;50299;49.524;8.536;2023-07-28T10:41:17;99920.44;;;19.07;59.29
64053;BME280;50299;49.524;8.536;2023-07-28T10:43:45;99919.22;;;19.40;59.94
64053;BME280;50299;49.524;8.536;2023-07-28T10:46:15;99920.41;;;19.32;59.03
64053;BME280;50299;49.524;8.536;2023-07-28T10:48:44;99923.22;;;19.43;58.44
64053;BME280;50299;49.524;8.536;2023-07-28T10:51:11;99931.25;;;19.52;58.43
64053;BME280;50299;49.524;8.536;2023-07-28T10:53:38;99918.03;;;19.48;61.69
64053;BME280;50299;49.524;8.536;2023-07-28T10:56:05;99922.81;;;19.62;57.23
64053;BME280;50299;49.524;8.536;2023-07-28T10:58:37;99917.59;;;19.57;56.69
64053;BME280;50299;49.524;8.536;2023-07-28T11:01:03;99924.41;;;19.70;58.65
64053;BME280;50299;49.524;8.536;2023-07-28T11:03:30;99920.81;;;19.66;58.26
64053;BME280;50299;49.524;8.536;2023-07-28T11:05:56;99924.00;;;19.65;58.02
64053;BME280;50299;49.524;8.536;2023-07-28T11:08:24;99922.03;;;19.58;56.91
64053;BME280;50299;49.524;8.536;2023-07-28T11:10:51;99925.63;;;19.48;57.59
64053;BME280;50299;49.524;8.536;2023-07-28T11:13:17;99920.81;;;19.63;58.52
64053;BME280;50299;49.524;8.536;2023-07-28T11:16:03;99923.09;;;20.00;56.86
64053;BME280;50299;49.524;8.536;2023-07-28T11:18:31;99922.25;;;20.03;57.03
64053;BME280;50299;49.524;8.536;2023-07-28T11:20:58;99924.66;;;20.15;56.38
64053;BME280;50299;49.524;8.536;2023-07-28T11:23:25;99927.47;;;20.08;56.50
64053;BME280;50299;49.524;8.536;2023-07-28T11:25:52;99925.94;;;19.86;55.50
64053;BME280;50299;49.524;8.536;2023-07-28T11:28:19;99929.97;;;19.81;57.85
64053;BME280;50299;49.524;8.536;2023-07-28T11:30:46;99922.78;;;19.66;57.06
64053;BME280;50299;49.524;8.536;2023-07-28T11:33:13;99926.72;;;19.93;58.60
64053;BME280;50299;49.524;8.536;2023-07-28T11:35:44;99929.47;;;20.11;55.84
64053;BME280;50299;49.524;8.536;2023-07-28T11:38:11;99925.13;;;19.92;57.49
64053;BME280;50299;49.524;8.536;2023-07-28T11:40:41;99931.97;;;19.81;55.66
64053;BME280;50299;49.524;8.536;2023-07-28T11:43:08;99931.97;;;19.77;56.96
64053;BME280;50299;49.524;8.536;2023-07-28T11:45:34;99932.41;;;19.58;55.77
64053;BME280;50299;49.524;8.536;2023-07-28T11:48:03;99930.81;;;19.60;58.55
64053;BME280;50299;49.524;8.536;2023-07-28T11:50:39;99937.53;;;19.95;56.73
64053;BME280;50299;49.524;8.536;2023-07-28T11:53:06;99936.06;;;19.55;57.35
64053;BME280;50299;49.524;8.536;2023-07-28T11:55:34;99933.22;;;19.44;59.79
64053;BME280;50299;49.524;8.536;2023-07-28T11:58:01;99936.84;;;19.27;60.70
64053;BME280;50299;49.524;8.536;2023-07-28T12:00:32;99925.63;;;19.16;62.12
64053;BME280;50299;49.524;8.536;2023-07-28T12:03:05;99932.84;;;19.03;60.70
64053;BME280;50299;49.524;8.536;2023-07-28T12:05:32;99928.81;;;19.25;59.94
64053;BME280;50299;49.524;8.536;2023-07-28T12:08:00;99926.44;;;19.45;60.49
64053;BME280;50299;49.524;8.536;2023-07-28T12:10:27;99927.59;;;19.62;59.42
64053;BME280;50299;49.524;8.536;2023-07-28T12:12:57;99927.22;;;19.60;59.28
64053;BME280;50299;49.524;8.536;2023-07-28T12:15:33;99928.81;;;19.43;59.54
64053;BME280;50299;49.524;8.536;2023-07-28T12:18:13;99935.25;;;19.15;60.53
64053;BME280;50299;49.524;8.536;2023-07-28T12:20:44;99939.25;;;19.17;60.43
64053;BME280;50299;49.524;8.536;2023-07-28T12:23:20;99931.25;;;19.34;61.61
64053;BME280;50299;49.524;8.536;2023-07-28T12:25:50;99939.25;;;19.39;61.14
64053;BME280;50299;49.524;8.536;2023-07-28T12:28:17;99932.44;;;19.04;62.44
64053;BME280;50299;49.524;8.536;2023-07-28T12:30:46;99934.44;;;19.00;62.14
64053;BME280;50299;49.524;8.536;2023-07-28T12:33:15;99930.06;;;19.13;61.22
64053;BME280;50299;49.524;8.536;2023-07-28T12:35:46;99939.63;;;18.87;61.31
64053;BME280;50299;49.524;8.536;2023-07-28T12:38:15;99933.22;;;18.83;61.91
64053;BME280;50299;49.524;8.536;2023-07-28T12:40:44;99938.03;;;19.15;61.44
64053;BME280;50299;49.524;8.536;2023-07-28T12:43:14;99939.66;;;19.05;63.58
64053;BME280;50299;49.524;8.536;2023-07-28T12:45:44;99936.44;;;18.85;64.13
64053;BME280;50299;49.524;8.536;2023-07-28T12:48:22;99943.97;;;18.70;67.61
64053;BME280;50299;49.524;8.536;2023-07-28T12:50:49;99939.09;;;18.32;64.80
64053;BME280;50299;49.524;8.536;2023-07-28T12:53:16;99955.28;;;17.97;67.87
64053;BME280;50299;49.524;8.536;2023-07-28T12:55:48;99939.47;;;18.34;66.34
64053;BME280;50299;49.524;8.536;2023-07-28T12:58:17;99954.25;;;18.23;65.89
64053;BME280;50299;49.524;8.536;2023-07-28T13:00:46;99953.75;;;18.07;66.22
64053;BME280;50299;49.524;8.536;2023-07-28T13:03:16;99952.47;;;17.90;67.63
64053;BME280;50299;49.524;8.536;2023-07-28T13:05:42;99952.22;;;18.20;66.97
64053;BME280;50299;49.524;8.536;2023-07-28T13:08:10;99950.66;;;18.30;67.25